createdAt,value
2022-09-07T00:00:40.363Z,2.03
2022-09-07T00:03:07.087Z,2.92
2022-09-07T00:05:34.238Z,9.43
2022-09-07T00:08:00.938Z,3.72
2022-09-07T00:10:27.481Z,5.22
2022-09-07T00:12:53.917Z,4.75
2022-09-07T00:15:20.409Z,2.80
2022-09-07T00:17:46.898Z,4.30
2022-09-07T00:20:13.381Z,4.07
2022-09-07T00:22:39.857Z,4.97
2022-09-07T00:25:06.987Z,3.88
2022-09-07T00:27:33.443Z,5.10
2022-09-07T00:29:59.932Z,3.80
2022-09-07T00:32:26.387Z,2.40
2022-09-07T00:34:52.930Z,6.68
2022-09-07T00:37:19.336Z,4.43
2022-09-07T00:39:45.857Z,5.95
2022-09-07T00:42:12.452Z,4.13
2022-09-07T00:44:42.208Z,3.08
2022-09-07T00:47:15.775Z,4.10
2022-09-07T00:49:44.036Z,4.22
2022-09-07T00:52:12.100Z,3.30
2022-09-07T00:54:46.200Z,2.40
2022-09-07T00:57:14.040Z,3.53
2022-09-07T00:59:47.079Z,3.78
2022-09-07T01:02:16.426Z,5.47
2022-09-07T01:04:46.273Z,4.53
2022-09-07T01:07:12.820Z,2.57
2022-09-07T01:09:40.364Z,2.83
2022-09-07T01:12:07.284Z,3.88
2022-09-07T01:14:42.129Z,3.25
2022-09-07T01:29:04.840Z,3.35
2022-09-07T01:32:05.131Z,2.28
2022-09-07T01:34:32.361Z,4.30
2022-09-07T01:37:13.949Z,2.50
2022-09-07T01:39:51.523Z,2.20
2022-09-07T01:42:23.004Z,4.80
2022-09-07T01:44:56.117Z,3.47
2022-09-07T01:47:29.595Z,2.92
2022-09-07T01:50:06.147Z,2.77
2022-09-07T01:52:52.315Z,2.58
2022-09-07T01:55:34.005Z,2.65
2022-09-07T01:58:11.490Z,1.55
2022-09-07T02:00:40.603Z,1.95
2022-09-07T02:03:15.892Z,3.10
2022-09-07T02:05:46.472Z,2.17
2022-09-07T02:08:18.933Z,2.75
2022-09-07T02:10:49.978Z,3.30
2022-09-07T02:13:22.823Z,3.78
2022-09-07T02:16:01.688Z,1.70
2022-09-07T02:18:34.680Z,2.33
2022-09-07T02:21:02.831Z,2.20
2022-09-07T02:23:35.421Z,3.72
2022-09-07T02:26:10.329Z,2.13
2022-09-07T02:28:38.438Z,2.70
2022-09-07T02:31:05.165Z,3.25
2022-09-07T02:33:31.757Z,2.15
2022-09-07T02:35:58.766Z,3.22
2022-09-07T02:38:25.517Z,3.35
2022-09-07T02:40:55.815Z,2.33
2022-09-07T02:43:23.732Z,3.47
2022-09-07T02:46:16.470Z,3.22
2022-09-07T02:49:07.766Z,3.35
2022-09-07T02:51:52.368Z,2.95
2022-09-07T02:54:25.488Z,2.67
2022-09-07T02:57:10.632Z,2.83
2022-09-07T02:59:55.568Z,3.38
2022-09-07T03:02:31.622Z,1.70
2022-09-07T03:05:11.658Z,2.38
2022-09-07T03:07:45.123Z,3.40
2022-09-07T03:10:13.295Z,2.60
2022-09-07T03:12:42.194Z,2.38
2022-09-07T03:15:11.976Z,2.78
2022-09-07T03:17:39.334Z,2.55
2022-09-07T03:20:06.102Z,3.50
2022-09-07T03:22:33.647Z,2.17
2022-09-07T03:25:01.716Z,2.10
2022-09-07T03:27:28.167Z,1.80
2022-09-07T03:29:54.598Z,1.65
2022-09-07T03:32:21.051Z,2.30
2022-09-07T03:34:48.551Z,2.47
2022-09-07T03:37:15.182Z,5.15
2022-09-07T03:39:41.716Z,1.90
2022-09-07T03:42:08.354Z,1.70
2022-09-07T03:44:34.822Z,1.90
2022-09-07T03:47:01.330Z,3.75
2022-09-07T03:49:27.888Z,3.33
2022-09-07T03:51:54.348Z,2.28
2022-09-07T03:54:20.915Z,3.40
2022-09-07T03:56:47.351Z,1.33
2022-09-07T03:59:13.918Z,2.80
2022-09-07T04:01:40.446Z,1.67
2022-09-07T04:04:07.021Z,2.53
2022-09-07T04:06:33.785Z,1.65
2022-09-07T04:09:11.186Z,3.03
2022-09-07T04:11:38.083Z,2.65
2022-09-07T04:14:04.559Z,2.03
2022-09-07T04:16:31.239Z,2.20
2022-09-07T04:18:59.006Z,2.85
2022-09-07T04:21:28.049Z,2.67
2022-09-07T04:23:54.581Z,2.30
2022-09-07T04:26:23.682Z,5.10
2022-09-07T04:28:50.668Z,2.50
2022-09-07T04:31:19.251Z,2.75
2022-09-07T04:33:47.103Z,1.67
2022-09-07T04:36:14.865Z,3.55
2022-09-07T04:38:41.520Z,3.30
2022-09-07T04:41:13.114Z,3.58
2022-09-07T04:43:40.804Z,2.40
2022-09-07T04:46:13.044Z,2.50
2022-09-07T04:48:39.585Z,1.60
2022-09-07T04:51:08.026Z,1.75
2022-09-07T04:53:36.073Z,2.33
2022-09-07T04:56:03.059Z,2.20
2022-09-07T04:58:30.041Z,3.10
2022-09-07T05:01:02.208Z,2.95
2022-09-07T05:03:30.235Z,2.85
2022-09-07T05:05:56.819Z,3.00
2022-09-07T05:08:23.361Z,2.22
2022-09-07T05:10:52.531Z,1.60
2022-09-07T05:13:19.221Z,2.88
2022-09-07T05:15:45.817Z,3.17
2022-09-07T05:18:13.775Z,2.63
2022-09-07T05:20:41.199Z,1.98
2022-09-07T05:23:08.682Z,3.53
2022-09-07T05:25:35.713Z,2.40
2022-09-07T05:28:02.416Z,2.33
2022-09-07T05:33:15.455Z,2.72
2022-09-07T05:35:42.857Z,2.63
2022-09-07T05:38:09.292Z,2.10
2022-09-07T05:40:39.986Z,3.67
2022-09-07T05:43:09.830Z,3.28
2022-09-07T05:45:36.331Z,4.63
2022-09-07T05:48:02.797Z,3.10
2022-09-07T05:50:29.268Z,2.55
2022-09-07T05:52:55.764Z,4.38
2022-09-07T05:55:30.060Z,2.70
2022-09-07T05:57:58.157Z,4.07
2022-09-07T06:00:24.584Z,4.13
2022-09-07T06:02:51.182Z,3.17
2022-09-07T06:05:17.717Z,2.20
2022-09-07T06:07:48.012Z,2.42
2022-09-07T06:13:00.985Z,2.93
2022-09-07T06:15:27.638Z,3.00
2022-09-07T06:17:54.037Z,2.95
2022-09-07T06:20:20.533Z,3.22
2022-09-07T06:22:46.969Z,4.07
2022-09-07T06:25:13.461Z,3.37
2022-09-07T06:27:39.916Z,5.00
2022-09-07T06:30:07.429Z,4.20
2022-09-07T06:35:08.949Z,4.25
2022-09-07T06:37:35.491Z,4.67
2022-09-07T06:40:02.270Z,4.65
2022-09-07T06:42:28.727Z,3.38
2022-09-07T06:44:55.314Z,4.07
2022-09-07T06:47:21.769Z,5.43
2022-09-07T06:49:49.523Z,4.30
2022-09-07T06:52:16.431Z,5.50
2022-09-07T06:57:27.033Z,5.70
2022-09-07T06:59:53.555Z,6.68
2022-09-07T07:02:20.055Z,5.60
2022-09-07T07:04:46.699Z,5.22
2022-09-07T07:07:14.039Z,7.35
2022-09-07T07:09:41.635Z,5.00
2022-09-07T07:12:08.872Z,4.57
2022-09-07T07:14:38.438Z,6.50
2022-09-07T07:17:08.379Z,5.15
2022-09-07T07:19:34.967Z,6.70
2022-09-07T07:22:14.304Z,5.43
2022-09-07T07:24:47.884Z,6.72
2022-09-07T07:27:14.385Z,9.07
2022-09-07T07:29:40.878Z,8.02
2022-09-07T07:32:07.977Z,8.70
2022-09-07T07:34:53.039Z,7.07
2022-09-07T07:37:19.536Z,5.93
2022-09-07T07:42:33.872Z,7.50
2022-09-07T07:47:51.334Z,9.50
2022-09-07T07:50:34.192Z,7.25
2022-09-07T07:55:47.749Z,8.05
2022-09-07T07:58:14.231Z,9.63
2022-09-07T08:00:56.645Z,6.10
2022-09-07T08:03:24.821Z,8.30
2022-09-07T08:05:52.176Z,8.13
2022-09-07T08:08:19.141Z,5.63
2022-09-07T08:10:47.867Z,12.55
2022-09-07T08:13:15.710Z,8.98
2022-09-07T08:15:45.306Z,7.47
2022-09-07T08:18:12.748Z,8.30
2022-09-07T08:20:40.277Z,9.02
2022-09-07T08:23:08.327Z,8.90
2022-09-07T08:25:35.596Z,8.30
2022-09-07T08:28:02.766Z,6.97
2022-09-07T08:30:29.662Z,12.43
2022-09-07T08:32:56.150Z,11.20
2022-09-07T08:35:22.759Z,9.73
2022-09-07T08:37:49.295Z,8.90
2022-09-07T08:40:17.813Z,13.35
2022-09-07T08:42:53.680Z,13.87
2022-09-07T08:45:30.071Z,10.57
2022-09-07T08:48:04.004Z,12.60
2022-09-07T08:50:38.639Z,13.50
2022-09-07T08:53:12.782Z,9.70
2022-09-07T08:58:48.604Z,14.25
2022-09-07T09:01:36.693Z,13.15
2022-09-07T09:04:19.558Z,10.65
2022-09-07T09:07:02.967Z,12.60
2022-09-07T09:09:32.456Z,13.00
2022-09-07T09:12:24.472Z,12.40
2022-09-07T09:15:24.601Z,10.70
2022-09-07T09:17:54.799Z,13.70
2022-09-07T09:20:46.517Z,11.43
2022-09-07T09:26:00.626Z,11.43
2022-09-07T09:28:28.974Z,13.13
2022-09-07T09:30:58.474Z,11.98
2022-09-07T09:33:31.330Z,11.63
2022-09-07T09:36:22.336Z,11.60
2022-09-07T09:38:48.955Z,13.60
2022-09-07T09:41:48.357Z,10.77
2022-09-07T09:44:17.714Z,11.35
2022-09-07T09:47:29.617Z,10.73
2022-09-07T09:49:40.679Z,10.30
2022-09-07T09:52:31.275Z,10.07
2022-09-07T09:55:32.987Z,10.20
2022-09-07T10:04:06.273Z,9.77
2022-09-07T10:06:35.989Z,8.65
2022-09-07T10:09:03.090Z,8.95
2022-09-07T10:14:31.237Z,8.88
2022-09-07T10:16:59.578Z,10.90
2022-09-07T10:19:33.166Z,9.13
2022-09-07T10:22:02.776Z,9.13
2022-09-07T10:24:38.997Z,8.50
2022-09-07T10:27:28.660Z,8.75
2022-09-07T10:29:55.585Z,8.93
2022-09-07T10:32:39.597Z,9.95
2022-09-07T10:35:21.082Z,7.75
2022-09-07T10:37:59.088Z,8.23
2022-09-07T10:40:41.123Z,6.22
2022-09-07T10:43:22.794Z,8.50
2022-09-07T10:45:56.430Z,5.90
2022-09-07T10:48:28.387Z,5.18
2022-09-07T10:51:05.059Z,4.47
2022-09-07T10:54:29.421Z,3.40
2022-09-07T10:56:46.595Z,3.80
2022-09-07T10:59:19.266Z,3.53
2022-09-07T11:01:46.998Z,3.00
2022-09-07T11:04:47.993Z,3.60
2022-09-07T11:07:24.337Z,4.05
2022-09-07T11:09:59.290Z,5.50
2022-09-07T11:12:31.825Z,4.43
2022-09-07T11:15:13.493Z,3.60
2022-09-07T11:25:46.640Z,3.17
2022-09-07T11:28:15.613Z,4.82
2022-09-07T11:30:49.965Z,4.40
2022-09-07T11:33:29.278Z,2.13
2022-09-07T11:36:11.286Z,3.42
2022-09-07T11:38:46.745Z,3.67
2022-09-07T11:41:23.276Z,3.42
2022-09-07T11:43:59.514Z,3.05
2022-09-07T11:46:45.016Z,3.28
2022-09-07T11:49:19.309Z,5.28
2022-09-07T11:52:08.656Z,4.03
2022-09-07T11:54:41.337Z,5.07
2022-09-07T11:57:16.620Z,4.55
2022-09-07T12:00:06.328Z,5.57
2022-09-07T12:02:59.351Z,3.58
2022-09-07T12:05:50.067Z,5.93
2022-09-07T12:08:23.783Z,4.55
2022-09-07T12:10:57.971Z,4.50
2022-09-07T12:13:29.507Z,3.95
2022-09-07T12:16:00.060Z,3.60
2022-09-07T12:18:47.482Z,3.33
2022-09-07T12:21:43.703Z,5.78
2022-09-07T12:24:32.955Z,4.05
2022-09-07T12:27:00.861Z,5.00
2022-09-07T12:29:29.852Z,4.50
2022-09-07T12:32:55.433Z,4.17
2022-09-07T12:37:12.450Z,3.47
2022-09-07T12:38:32.495Z,5.40
2022-09-07T12:41:03.297Z,5.38
2022-09-07T12:54:59.685Z,4.45
2022-09-07T12:58:01.413Z,4.32
2022-09-07T13:00:43.211Z,4.50
2022-09-07T13:07:02.516Z,3.35
2022-09-07T13:09:57.367Z,3.45
2022-09-07T13:15:38.868Z,2.63
2022-09-07T13:21:07.232Z,4.53
2022-09-07T13:28:04.178Z,6.13
2022-09-07T13:30:47.947Z,3.38
2022-09-07T13:33:55.682Z,3.93
2022-09-07T13:36:31.323Z,4.00
2022-09-07T13:42:23.720Z,5.97
2022-09-07T13:46:17.602Z,2.33
2022-09-07T13:48:56.556Z,4.00
2022-09-07T13:56:23.048Z,3.15
2022-09-07T14:03:13.472Z,5.18
2022-09-07T14:05:44.899Z,4.30
2022-09-07T14:08:27.481Z,3.35
2022-09-07T14:10:56.489Z,3.30
2022-09-07T14:16:06.804Z,1.88
2022-09-07T14:18:34.771Z,1.70
2022-09-07T14:21:01.692Z,4.57
2022-09-07T14:23:38.233Z,1.27
2022-09-07T14:41:40.118Z,1.92
2022-09-07T14:44:06.857Z,2.80
2022-09-07T14:49:56.693Z,2.88
2022-09-07T14:52:37.813Z,3.13
2022-09-07T14:55:29.782Z,3.47
2022-09-07T14:58:20.177Z,6.28
2022-09-07T15:03:38.204Z,2.90
2022-09-07T15:06:06.280Z,2.63
2022-09-07T15:08:36.827Z,1.35
2022-09-07T15:14:00.459Z,1.53
2022-09-07T15:16:31.059Z,3.17
2022-09-07T15:19:02.331Z,2.63
2022-09-07T15:21:32.493Z,4.00
2022-09-07T15:24:00.327Z,3.95
2022-09-07T15:29:24.830Z,4.60
2022-09-07T15:32:02.192Z,3.30
2022-09-07T15:34:30.840Z,2.80
2022-09-07T15:37:00.624Z,3.35
2022-09-07T15:39:29.945Z,1.97
2022-09-07T15:41:57.790Z,3.80
2022-09-07T15:44:28.055Z,2.00
2022-09-07T15:49:47.658Z,3.08
2022-09-07T15:52:16.997Z,3.60
2022-09-07T15:54:43.725Z,3.55
2022-09-07T15:59:58.219Z,2.08
2022-09-07T16:05:11.504Z,3.57
2022-09-07T16:10:26.333Z,2.75
2022-09-07T16:13:01.920Z,1.45
2022-09-07T16:15:29.237Z,2.00
2022-09-07T16:17:55.760Z,2.70
2022-09-07T16:20:24.997Z,2.50
2022-09-07T16:25:39.259Z,3.38
2022-09-07T16:28:07.107Z,2.00
2022-09-07T16:30:34.325Z,5.40
2022-09-07T16:33:02.005Z,4.97
2022-09-07T16:35:28.550Z,3.95
2022-09-07T16:40:42.106Z,3.63
2022-09-07T16:43:09.904Z,4.17
2022-09-07T16:48:23.561Z,3.28
2022-09-07T16:51:06.368Z,3.85
2022-09-07T16:54:14.803Z,2.28
2022-09-07T16:56:41.680Z,1.67
2022-09-07T17:00:01.966Z,2.55
2022-09-07T17:08:27.896Z,2.97
2022-09-07T17:11:12.909Z,3.10
2022-09-07T17:13:40.873Z,3.03
2022-09-07T17:16:10.082Z,4.32
2022-09-07T17:21:24.019Z,5.07
2022-09-07T17:23:55.155Z,2.93
2022-09-07T17:26:26.709Z,3.47
2022-09-07T17:28:55.533Z,4.68
2022-09-07T17:34:13.276Z,2.30
2022-09-07T17:36:40.432Z,2.77
2022-09-07T17:39:16.277Z,3.13
2022-09-07T17:41:44.003Z,3.50
2022-09-07T17:44:10.917Z,4.75
2022-09-07T17:46:37.599Z,2.13
2022-09-07T17:49:07.061Z,4.17
2022-09-07T17:51:33.839Z,3.78
2022-09-07T17:54:03.443Z,2.13
2022-09-07T17:56:31.504Z,2.97
2022-09-07T18:01:49.024Z,3.80
2022-09-07T18:04:15.582Z,3.67
2022-09-07T18:06:42.145Z,3.10
2022-09-07T18:09:08.843Z,2.25
2022-09-07T18:11:51.257Z,6.65
2022-09-07T18:14:18.659Z,3.30
2022-09-07T18:16:46.678Z,2.50
2022-09-07T18:19:13.961Z,1.88
2022-09-07T18:21:42.516Z,2.47
2022-09-07T18:24:18.600Z,2.10
2022-09-07T18:26:53.785Z,4.93
2022-09-07T18:29:33.023Z,1.92
2022-09-07T18:32:03.064Z,2.50
2022-09-07T18:34:32.204Z,4.45
2022-09-07T18:36:59.614Z,3.22
2022-09-07T18:39:27.307Z,2.87
2022-09-07T18:41:54.605Z,3.83
2022-09-07T18:47:15.460Z,5.13
2022-09-07T18:49:47.822Z,2.80
2022-09-07T18:58:15.288Z,2.30
2022-09-07T19:00:45.056Z,2.63
2022-09-07T19:03:14.325Z,1.70
2022-09-07T19:05:51.804Z,2.70
2022-09-07T19:08:44.277Z,3.60
2022-09-07T19:17:03.906Z,4.65
2022-09-07T19:19:35.542Z,3.63
2022-09-07T19:22:03.373Z,2.47
2022-09-07T19:24:32.295Z,3.17
2022-09-07T19:27:00.653Z,2.83
2022-09-07T19:29:30.960Z,3.70
2022-09-07T19:32:04.756Z,2.93
2022-09-07T19:34:35.007Z,3.22
2022-09-07T19:37:02.911Z,3.95
2022-09-07T19:39:29.660Z,2.85
2022-09-07T19:41:56.259Z,5.97
2022-09-07T19:44:24.849Z,6.60
2022-09-07T19:46:51.406Z,2.80
2022-09-07T19:49:18.217Z,2.80
2022-09-07T19:51:44.788Z,4.97
2022-09-07T19:54:12.690Z,3.85
2022-09-07T19:56:41.229Z,3.90
2022-09-07T19:59:08.915Z,3.85
2022-09-07T20:01:36.271Z,3.65
2022-09-07T20:04:06.795Z,4.05
2022-09-07T20:06:37.013Z,2.67
2022-09-07T20:09:03.940Z,5.93
2022-09-07T20:11:32.057Z,3.60
2022-09-07T20:13:58.970Z,3.88
2022-09-07T20:16:25.937Z,4.60
2022-09-07T20:18:52.547Z,2.50
2022-09-07T20:21:22.420Z,4.10
2022-09-07T20:23:49.256Z,4.43
2022-09-07T20:26:18.101Z,3.75
2022-09-07T20:28:44.896Z,4.10
2022-09-07T20:31:18.053Z,3.45
2022-09-07T20:33:46.323Z,2.87
2022-09-07T20:36:15.465Z,4.35
2022-09-07T20:38:44.651Z,4.18
2022-09-07T20:41:16.199Z,5.05
2022-09-07T20:43:42.792Z,3.45
2022-09-07T20:46:09.795Z,3.63
2022-09-07T20:48:37.633Z,2.78
2022-09-07T20:51:10.585Z,2.92
2022-09-07T20:53:37.916Z,3.13
2022-09-07T20:56:08.294Z,2.75
2022-09-07T20:58:35.433Z,2.50
2022-09-07T21:01:02.625Z,4.40
2022-09-07T21:03:29.533Z,4.95
2022-09-07T21:05:56.150Z,3.35
2022-09-07T21:08:22.655Z,3.33
2022-09-07T21:10:49.183Z,4.70
2022-09-07T21:13:15.702Z,5.75
2022-09-07T21:15:44.037Z,2.80
2022-09-07T21:18:15.611Z,4.13
2022-09-07T21:20:57.867Z,3.95
2022-09-07T21:23:31.846Z,2.20
2022-09-07T21:25:58.746Z,2.42
2022-09-07T21:28:26.284Z,3.60
2022-09-07T21:30:58.785Z,3.13
2022-09-07T21:33:26.389Z,2.70
2022-09-07T21:35:53.770Z,3.00
2022-09-07T21:38:22.122Z,4.63
2022-09-07T21:40:49.319Z,2.67
2022-09-07T21:43:17.023Z,3.78
2022-09-07T21:45:43.569Z,3.67
2022-09-07T21:48:10.153Z,2.90
2022-09-07T21:50:36.613Z,3.65
2022-09-07T21:53:03.165Z,3.47
2022-09-07T21:55:29.808Z,4.70
2022-09-07T21:57:56.390Z,6.25
2022-09-07T22:00:23.021Z,5.20
2022-09-07T22:02:51.133Z,4.47
2022-09-07T22:05:17.975Z,4.07
2022-09-07T22:07:44.562Z,4.72
2022-09-07T22:10:11.075Z,3.28
2022-09-07T22:12:37.649Z,3.47
2022-09-07T22:15:04.911Z,4.88
2022-09-07T22:17:31.521Z,4.13
2022-09-07T22:19:58.118Z,4.68
2022-09-07T22:22:24.587Z,6.00
2022-09-07T22:24:51.088Z,4.17
2022-09-07T22:27:17.587Z,5.78
2022-09-07T22:29:44.136Z,4.28
2022-09-07T22:32:10.609Z,5.88
2022-09-07T22:34:37.097Z,9.52
2022-09-07T22:37:03.597Z,3.63
2022-09-07T22:39:30.146Z,7.18
2022-09-07T22:41:56.703Z,4.88
2022-09-07T22:44:24.637Z,3.70
2022-09-07T22:46:51.237Z,6.43
2022-09-07T22:49:18.224Z,4.17
2022-09-07T22:51:45.423Z,3.35
2022-09-07T22:54:12.414Z,3.05
2022-09-07T22:56:39.612Z,5.20
2022-09-07T22:59:08.379Z,4.15
2022-09-07T23:01:35.874Z,3.00
2022-09-07T23:04:03.432Z,2.95
2022-09-07T23:06:38.586Z,4.43
2022-09-07T23:09:12.056Z,5.13
2022-09-07T23:11:39.188Z,6.82
2022-09-07T23:14:08.725Z,4.63
2022-09-07T23:16:35.418Z,5.50
2022-09-07T23:19:01.966Z,8.93
2022-09-07T23:21:30.405Z,5.15
2022-09-07T23:23:58.643Z,6.63
2022-09-07T23:26:27.829Z,6.10
2022-09-07T23:28:56.671Z,7.15
2022-09-07T23:31:24.801Z,9.38
2022-09-07T23:33:51.567Z,6.50
2022-09-07T23:36:20.372Z,6.93
2022-09-07T23:38:47.515Z,9.27
2022-09-07T23:41:14.197Z,8.70
2022-09-07T23:43:41.628Z,5.15
2022-09-07T23:46:09.422Z,5.65
2022-09-07T23:48:36.091Z,6.78
2022-09-07T23:51:02.532Z,6.67
2022-09-07T23:53:29.072Z,5.55
2022-09-07T23:55:55.537Z,7.30
2022-09-07T23:58:23.091Z,6.40
